Airfield :
LOGIN :

Register | Disclaimer

   EN    FR    IT 

 










Legend :    VFR   Marginal VFR   IFR   Intensive IFR   Very Intensive IFR
Visi :
Ceiling :
>= 8 km
>= 3000ft
5 to 8 km
1000 to 3000 ft
1500m to 5 km
500 to 1000 ft
800 to 1500m
200 to 500 ft
< 800m
< 200 ft
Symbols :   Thunderstorms  Fog  Heavy snow  Heavy precipitations  Wind > 20 kt
SIGMETs :     Misc.  Thunderstorms  Icing  Turbulence  Mountain Waves  Volcanic Ashes






- Airport Elevation : 326 ft
- IATA code : LCG


LECO - A Coruna

CURRENT METAR :
  • 250130Z AUTO 35003KT 310V020 CAVOK 14/11 Q1020

EXPIRED METARs :
  • 250030Z AUTO VRB02KT 9999 FEW035 14/11 Q1020
  • 242330Z AUTO 32001KT 9999 SCT036 14/12 Q1021
  • 242300Z VRB02KT 9999 SCT036 15/11 Q1021 NOSIG

TAF TAF LECO
Valid from the 24 at 21:00 until the 25 at 21:00 UTC


242000Z 2421/2521 36009KT 9999 FEW020 SCT030 TX19/2513Z TN12/2505Z
PROB30
TEMPO 2421/2512 3000 RA SHRA BKN010 SCT030TCU
PROB30
TEMPO 2510/2519 36015G25KT



MET'MAP, your aeronautical weather chart ! - Copyright ORBIFLY December 2007 - Disclaimer

ORBIFLY MET'MAP TEAM :

Programming & Development : Alexandra Zaïnal
Original concept : Baudouin d'Aumeries
Technical & hardware support : Manuel Goepfert
Assistance : Marc-Olivier Méhu




SOURCES & CREDITS :

   NOAA